Time;durP1;ratioP1;P1;durP2;ratioP2;P2;SDS_P1;SDS_P2;PMS_P1;PMS_P2;Temp;Humidity;BMP_temperature;BMP_pressure;BME280_temperature;BME280_humidity;BME280_pressure;Samples;Min_cycle;Max_cycle;Signal;HPM_P1;HPM_P2
2021/04/15 00:01:49;;;;;;;10.40;9.33;;;3.30;99.90;;;;;;5096112;28;20928;-70
2021/04/15 00:04:14;;;;;;;11.07;9.93;;;3.30;99.90;;;;;;5095854;28;20497;-70
2021/04/15 00:06:41;;;;;;;11.80;10.60;;;3.30;99.90;;;;;;5095877;28;20397;-70
2021/04/15 00:09:11;;;;;;;11.03;9.93;;;3.20;99.90;;;;;;5095862;28;20163;-70
2021/04/15 00:11:38;;;;;;;10.17;9.17;;;3.20;99.90;;;;;;5095617;28;20385;-70
2021/04/15 00:14:04;;;;;;;11.30;10.20;;;3.10;99.90;;;;;;5090311;28;20401;-69
2021/04/15 00:16:31;;;;;;;12.87;10.00;;;3.10;99.90;;;;;;5075825;28;20462;-69
2021/04/15 00:18:57;;;;;;;11.17;9.97;;;3.10;99.90;;;;;;5075412;28;20432;-70
2021/04/15 00:21:24;;;;;;;11.70;10.60;;;3.10;99.90;;;;;;5075326;28;20400;-69
2021/04/15 00:23:49;;;;;;;10.93;9.83;;;3.10;99.90;;;;;;5075126;28;20519;-70
2021/04/15 00:26:18;;;;;;;14.40;10.80;;;3.00;99.90;;;;;;5075172;28;20390;-69
2021/04/15 00:28:44;;;;;;;11.50;10.30;;;3.00;99.90;;;;;;5075432;28;20632;-70
2021/04/15 00:31:10;;;;;;;12.60;11.30;;;3.00;99.90;;;;;;5075434;28;20478;-70
2021/04/15 00:33:36;;;;;;;12.67;9.47;;;3.10;99.90;;;;;;5075633;28;20183;-70
2021/04/15 00:36:03;;;;;;;12.37;11.27;;;3.10;99.90;;;;;;5075050;28;20406;-69
2021/04/15 00:38:30;;;;;;;12.40;11.10;;;3.10;99.90;;;;;;5074952;28;20893;-70
2021/04/15 00:40:57;;;;;;;11.87;10.77;;;3.10;99.90;;;;;;5074939;28;20401;-70
2021/04/15 00:43:27;;;;;;;12.50;11.30;;;3.10;99.90;;;;;;5074681;28;20511;-70
2021/04/15 00:45:53;;;;;;;11.37;10.10;;;3.20;99.90;;;;;;5093287;28;20556;-70
2021/04/15 00:51:07;;;;;;;11.17;10.07;;;3.10;99.90;;;;;;5097219;27;20558;-70
2021/04/15 00:53:40;;;;;;;11.43;10.30;;;3.10;99.90;;;;;;5090386;28;20395;-69
2021/04/15 00:56:08;;;;;;;12.90;11.60;;;3.10;99.90;;;;;;5090343;28;20445;-69
2021/04/15 00:58:34;;;;;;;11.13;9.93;;;3.10;99.90;;;;;;5090414;28;20412;-70
2021/04/15 01:01:00;;;;;;;11.17;10.17;;;3.00;99.90;;;;;;5090585;28;20378;-69
2021/04/15 01:03:25;;;;;;;11.80;10.63;;;3.00;99.90;;;;;;5090388;28;20430;-69
2021/04/15 01:05:52;;;;;;;11.30;9.73;;;3.00;99.90;;;;;;5090185;28;20420;-70
2021/04/15 01:08:18;;;;;;;13.03;11.00;;;2.90;99.90;;;;;;5090024;28;20181;-70
2021/04/15 01:10:47;;;;;;;13.77;11.20;;;2.90;99.90;;;;;;5090129;28;20444;-69
2021/04/15 01:16:15;;;;;;;12.27;11.20;;;2.90;99.90;;;;;;5110993;27;21105;-70
2021/04/15 01:18:48;;;;;;;12.63;11.33;;;2.70;99.90;;;;;;5090529;28;20392;-70
2021/04/15 01:21:54;;;;;;;12.80;11.60;;;2.70;99.90;;;;;;5090468;28;20391;-70
2021/04/15 01:24:29;;;;;;;14.57;12.70;;;2.70;99.90;;;;;;5096474;28;20404;-69
2021/04/15 01:27:24;;;;;;;14.30;11.70;;;2.70;99.90;;;;;;5110598;28;20441;-70
2021/04/15 01:30:29;;;;;;;12.27;10.67;;;2.70;99.90;;;;;;5110321;28;20456;-70
2021/04/15 01:35:55;;;;;;;11.60;10.40;;;2.60;99.90;;;;;;5131434;27;21083;-69
2021/04/15 01:38:27;;;;;;;13.20;11.80;;;2.60;99.90;;;;;;5131433;27;20432;-69
2021/04/15 01:41:17;;;;;;;10.33;9.30;;;2.50;99.90;;;;;;5127690;27;20490;-69
2021/04/15 01:43:49;;;;;;;12.07;10.60;;;2.50;99.90;;;;;;5111200;28;20376;-70
2021/04/15 01:46:17;;;;;;;18.67;9.43;;;2.50;99.90;;;;;;5131239;27;20883;-70
2021/04/15 01:48:48;;;;;;;12.53;11.20;;;2.40;99.90;;;;;;5131137;27;20861;-70
2021/04/15 01:54:16;;;;;;;16.73;12.90;;;2.30;99.90;;;;;;5110881;27;20516;-70
2021/04/15 01:56:48;;;;;;;15.30;12.10;;;2.30;99.90;;;;;;5095778;28;20423;-68
2021/04/15 01:59:21;;;;;;;14.10;11.60;;;2.30;99.90;;;;;;5095706;28;20432;-68
2021/04/15 02:01:50;;;;;;;13.80;12.40;;;2.30;99.90;;;;;;5090391;28;20392;-70
2021/04/15 02:04:23;;;;;;;13.73;12.40;;;2.30;99.90;;;;;;5090347;28;20384;-68
2021/04/15 02:06:55;;;;;;;15.90;13.10;;;2.30;99.90;;;;;;5090324;28;20394;-70
2021/04/15 02:09:23;;;;;;;14.53;12.33;;;2.20;99.90;;;;;;5090353;28;20749;-70
2021/04/15 02:11:57;;;;;;;13.40;11.63;;;2.20;99.90;;;;;;5090668;28;20440;-68
2021/04/15 02:14:27;;;;;;;15.80;11.30;;;2.20;99.90;;;;;;5090250;28;20457;-70
2021/04/15 02:16:54;;;;;;;14.43;12.93;;;2.20;99.90;;;;;;5110230;28;20457;-70
2021/04/15 02:19:27;;;;;;;13.90;12.50;;;2.10;99.90;;;;;;5101143;28;20398;-70
2021/04/15 02:22:33;;;;;;;14.37;12.97;;;2.10;99.90;;;;;;5090023;28;20476;-68
2021/04/15 02:30:26;;;;;;;16.83;12.63;;;2.10;99.90;;;;;;5110810;27;20513;-69
2021/04/15 02:33:07;;;;;;;15.07;13.57;;;2.10;99.90;;;;;;5098602;28;20790;-70
2021/04/15 02:38:20;;;;;;;14.73;13.10;;;2.10;99.90;;;;;;5131316;27;20505;-70
2021/04/15 02:40:53;;;;;;;15.90;14.37;;;2.00;99.90;;;;;;5131153;27;20821;-70
2021/04/15 02:43:30;;;;;;;16.47;14.77;;;2.00;99.90;;;;;;5131787;27;20397;-70
2021/04/15 02:45:59;;;;;;;18.07;16.13;;;2.00;99.90;;;;;;5131330;27;20968;-70
2021/04/15 02:48:29;;;;;;;16.07;13.13;;;2.00;99.90;;;;;;5130550;27;20431;-70
2021/04/15 02:50:59;;;;;;;15.43;13.93;;;2.00;99.90;;;;;;5110578;28;20425;-70
2021/04/15 02:53:28;;;;;;;15.73;14.10;;;2.00;99.90;;;;;;5110537;28;20791;-70
2021/04/15 02:58:38;;;;;;;15.70;14.10;;;2.00;99.90;;;;;;5111262;27;20526;-71
2021/04/15 03:01:06;;;;;;;15.73;14.23;;;1.90;99.90;;;;;;5111040;28;20449;-71
2021/04/15 03:03:35;;;;;;;15.00;13.40;;;1.90;99.90;;;;;;5110775;28;20380;-71
2021/04/15 03:06:09;;;;;;;15.20;13.60;;;1.90;99.90;;;;;;5105826;28;20470;-70
2021/04/15 03:08:36;;;;;;;17.60;13.43;;;1.90;99.90;;;;;;5090243;28;20384;-70
2021/04/15 03:11:10;;;;;;;19.53;17.10;;;1.90;99.90;;;;;;5090508;28;20404;-70
2021/04/15 03:13:42;;;;;;;17.23;15.33;;;1.90;99.90;;;;;;5090628;28;20394;-71
2021/04/15 03:16:08;;;;;;;18.43;16.50;;;1.90;99.90;;;;;;5090130;28;20398;-71
2021/04/15 03:18:41;;;;;;;18.87;15.37;;;1.90;99.90;;;;;;5090073;28;20393;-71
2021/04/15 03:21:35;;;;;;;20.27;15.50;;;1.80;99.90;;;;;;5093527;28;20192;-71
2021/04/15 03:24:10;;;;;;;17.07;15.23;;;1.80;99.90;;;;;;5095730;28;20415;-71
2021/04/15 03:26:59;;;;;;;16.50;14.80;;;1.80;99.90;;;;;;5090136;28;20398;-71
2021/04/15 03:35:16;;;;;;;15.43;13.97;;;1.80;99.90;;;;;;5070379;28;20504;-70
2021/04/15 03:37:57;;;;;;;16.30;14.43;;;1.80;99.90;;;;;;5070474;28;20742;-71
2021/04/15 03:40:26;;;;;;;17.30;14.50;;;1.80;99.90;;;;;;5062476;28;20433;-70
2021/04/15 03:42:58;;;;;;;15.10;13.50;;;1.80;99.90;;;;;;5050279;28;20471;-71
2021/04/15 03:45:30;;;;;;;15.73;14.13;;;1.80;99.90;;;;;;5064118;28;20401;-71
2021/04/15 03:48:02;;;;;;;15.53;14.00;;;1.70;99.90;;;;;;5070111;28;20382;-70
2021/04/15 03:53:34;;;;;;;18.00;14.50;;;1.70;99.90;;;;;;5111025;27;20522;-71
2021/04/15 03:56:05;;;;;;;15.43;13.87;;;1.70;99.90;;;;;;5111195;28;20452;-71
2021/04/15 03:58:41;;;;;;;15.80;14.07;;;1.60;99.90;;;;;;5093267;28;20891;-71
2021/04/15 04:01:14;;;;;;;16.43;13.97;;;1.60;99.90;;;;;;5090393;28;20928;-71
2021/04/15 04:03:41;;;;;;;18.13;15.00;;;1.60;99.90;;;;;;5090359;28;20842;-71
2021/04/15 04:06:16;;;;;;;17.10;13.70;;;1.60;99.90;;;;;;5090368;28;20385;-71
2021/04/15 04:08:50;;;;;;;17.10;14.27;;;1.60;99.90;;;;;;5092148;28;20385;-71
2021/04/15 04:11:19;;;;;;;16.83;15.00;;;1.60;99.90;;;;;;5090972;28;20478;-71
2021/04/15 04:13:49;;;;;;;15.73;14.03;;;1.60;99.90;;;;;;5090771;28;20415;-71
2021/04/15 04:19:18;;;;;;;15.73;14.23;;;1.60;99.90;;;;;;5111007;27;20553;-71
2021/04/15 04:22:24;;;;;;;15.13;13.63;;;1.50;99.90;;;;;;5119501;28;20413;-71
2021/04/15 04:25:05;;;;;;;18.53;15.00;;;1.50;99.90;;;;;;5130906;28;20395;-71
2021/04/15 04:27:53;;;;;;;15.97;14.27;;;1.50;99.90;;;;;;5131659;28;20443;-70
2021/04/15 04:30:26;;;;;;;19.07;15.47;;;1.50;99.90;;;;;;5130278;28;20393;-71
2021/04/15 04:32:57;;;;;;;18.40;14.00;;;1.50;99.90;;;;;;5110537;28;20411;-71
2021/04/15 04:35:28;;;;;;;18.63;14.33;;;1.50;99.90;;;;;;5110604;28;20387;-71
2021/04/15 04:37:57;;;;;;;18.73;15.07;;;1.50;99.90;;;;;;5110601;28;20503;-71
2021/04/15 04:40:28;;;;;;;17.70;16.00;;;1.50;99.90;;;;;;5111791;28;20869;-69
2021/04/15 04:43:11;;;;;;;16.60;14.30;;;1.50;99.90;;;;;;5110795;28;20388;-69
2021/04/15 04:45:37;;;;;;;16.47;14.40;;;1.50;99.90;;;;;;5110385;28;20390;-71
2021/04/15 04:48:15;;;;;;;17.37;14.60;;;1.50;99.90;;;;;;5109352;28;20414;-71
2021/04/15 04:50:48;;;;;;;19.87;14.90;;;1.50;99.90;;;;;;5110395;28;20386;-71
2021/04/15 04:53:26;;;;;;;19.90;15.97;;;1.60;99.90;;;;;;5110599;28;20497;-71
2021/04/15 05:01:26;;;;;;;19.30;17.33;;;1.60;99.90;;;;;;5110930;27;20508;-71
2021/04/15 05:04:01;;;;;;;16.70;15.07;;;1.60;99.90;;;;;;5111149;28;20874;-71
2021/04/15 05:06:32;;;;;;;17.70;15.67;;;1.70;99.90;;;;;;5094506;28;20188;-70
2021/04/15 05:11:57;;;;;;;17.63;15.73;;;1.70;99.90;;;;;;5111012;27;20562;-70
2021/04/15 05:14:26;;;;;;;19.93;14.47;;;1.70;99.90;;;;;;5111012;28;20380;-70
2021/04/15 05:17:32;;;;;;;19.60;17.27;;;1.70;99.90;;;;;;5110940;28;20158;-70
2021/04/15 05:20:01;;;;;;;18.67;16.23;;;1.80;99.90;;;;;;5112781;28;20944;-70
2021/04/15 05:22:32;;;;;;;19.00;16.97;;;1.80;99.90;;;;;;5102739;28;20448;-70
2021/04/15 05:25:05;;;;;;;17.27;15.30;;;1.80;99.90;;;;;;5090898;28;20383;-70
2021/04/15 05:27:35;;;;;;;18.97;15.87;;;1.80;99.90;;;;;;5090464;28;20760;-70
2021/04/15 05:32:51;;;;;;;18.03;16.20;;;1.80;99.90;;;;;;5131670;27;20553;-71
2021/04/15 05:35:22;;;;;;;19.27;16.13;;;1.90;99.90;;;;;;5131398;27;20459;-70
2021/04/15 05:37:51;;;;;;;21.00;16.87;;;1.90;99.90;;;;;;5132122;27;20378;-71
2021/04/15 05:40:17;;;;;;;16.97;15.20;;;1.90;99.90;;;;;;5115795;27;20958;-71
2021/04/15 05:42:49;;;;;;;17.50;14.90;;;1.90;99.90;;;;;;5110586;28;20390;-70
2021/04/15 05:50:36;;;;;;;22.53;18.20;;;2.00;99.90;;;;;;5110942;27;20512;-70
2021/04/15 05:53:10;;;;;;;19.03;16.60;;;2.10;99.90;;;;;;5109960;28;20427;-71
2021/04/15 06:04:01;;;;;;;18.10;16.20;;;2.30;99.90;;;;;;5103615;27;20549;-71
2021/04/15 06:06:31;;;;;;;19.07;17.27;;;2.50;99.90;;;;;;5087844;28;20456;-71
2021/04/15 06:08:59;;;;;;;19.10;15.80;;;2.60;99.90;;;;;;5090355;28;20493;-71
2021/04/15 06:14:22;;;;;;;19.70;17.23;;;2.70;99.90;;;;;;5099761;27;20509;-70
2021/04/15 06:17:02;;;;;;;17.80;15.60;;;2.80;99.90;;;;;;5098516;28;20465;-70
2021/04/15 06:19:28;;;;;;;21.73;17.30;;;2.90;99.90;;;;;;5102557;28;20407;-70
2021/04/15 06:22:11;;;;;;;18.83;16.73;;;3.00;99.90;;;;;;5097880;28;20492;-71
2021/04/15 06:24:39;;;;;;;19.67;17.40;;;3.10;99.90;;;;;;5095405;28;20834;-70
2021/04/15 06:27:07;;;;;;;19.43;16.50;;;3.20;99.90;;;;;;5097268;28;20428;-70
2021/04/15 06:29:57;;;;;;;22.27;18.13;;;3.20;99.90;;;;;;5088842;28;20466;-70
2021/04/15 06:32:32;;;;;;;17.43;15.63;;;3.30;99.90;;;;;;5089092;28;20551;-70
2021/04/15 06:34:57;;;;;;;21.93;15.90;;;3.30;99.90;;;;;;5088700;28;20423;-70
2021/04/15 06:37:49;;;;;;;17.63;15.90;;;3.40;99.90;;;;;;5099332;28;20515;-70
2021/04/15 06:43:51;;;;;;;16.57;14.97;;;3.50;99.90;;;;;;5129460;27;20559;-70
2021/04/15 06:46:42;;;;;;;18.80;15.20;;;3.60;99.90;;;;;;5116942;28;20395;-70
2021/04/15 06:49:33;;;;;;;18.63;14.70;;;3.70;99.90;;;;;;5107848;28;20415;-71
2021/04/15 06:52:24;;;;;;;17.80;14.50;;;3.80;99.90;;;;;;5109146;28;20899;-70
2021/04/15 06:55:19;;;;;;;17.13;14.87;;;3.90;99.90;;;;;;5128072;28;20411;-71
2021/04/15 07:01:12;;;;;;;20.83;16.03;;;4.10;99.90;;;;;;5090652;28;20503;-72
2021/04/15 07:09:28;;;;;;;15.67;14.07;;;4.20;99.90;;;;;;5172975;27;20503;-71
2021/04/15 07:15:00;;;;;;;18.30;14.53;;;4.60;99.90;;;;;;5131174;27;20561;-72
2021/04/15 07:20:39;;;;;;;15.20;13.60;;;4.80;99.90;;;;;;5109254;27;20521;-72
2021/04/15 07:29:30;;;;;;;16.07;13.87;;;5.20;99.90;;;;;;5111028;27;20911;-72
2021/04/15 07:32:26;;;;;;;17.20;14.50;;;5.30;99.90;;;;;;5075347;28;20398;-71
2021/04/15 07:40:50;;;;;;;16.80;13.47;;;5.60;99.90;;;;;;5046626;28;20565;-74
2021/04/15 07:43:44;;;;;;;15.33;13.83;;;5.90;99.90;;;;;;5045919;28;20444;-74
2021/04/15 07:46:26;;;;;;;13.63;12.20;;;6.00;99.90;;;;;;5043197;28;20430;-74
2021/04/15 07:49:31;;;;;;;13.70;12.30;;;6.10;99.90;;;;;;5029246;28;20466;-74
2021/04/15 07:52:37;;;;;;;13.50;12.10;;;6.50;99.90;;;;;;5026116;28;20402;-74
2021/04/15 07:55:42;;;;;;;13.67;10.87;;;7.00;99.90;;;;;;5109190;27;20447;-74
2021/04/15 08:11:49;;;;;;;9.07;8.17;;;8.30;99.90;;;;;;5108660;27;20571;-73
2021/04/15 08:20:26;;;;;;;9.23;7.13;;;9.20;99.90;;;;;;5110768;27;20513;-71
2021/04/15 08:23:31;;;;;;;7.80;7.10;;;9.40;99.90;;;;;;5111159;28;20411;-72
2021/04/15 08:37:47;;;;;;;11.00;7.17;;;9.20;95.10;;;;;;5090532;27;20564;-75
2021/04/15 08:49:04;;;;;;;6.33;5.73;;;8.50;96.90;;;;;;5111322;27;20566;-72
2021/04/15 09:00:50;;;;;;;5.87;5.30;;;8.70;97.10;;;;;;5059751;28;20614;-72
2021/04/15 09:03:24;;;;;;;7.53;5.73;;;8.80;97.10;;;;;;5019129;28;20526;-72
2021/04/15 09:14:25;;;;;;;4.50;3.80;;;8.90;95.30;;;;;;5090086;28;20602;-74
2021/04/15 09:17:00;;;;;;;4.47;3.87;;;9.40;93.60;;;;;;5089446;28;20413;-74
2021/04/15 09:30:41;;;;;;;8.50;4.90;;;10.10;82.60;;;;;;5092271;28;20573;-72
2021/04/15 09:33:23;;;;;;;5.53;4.83;;;10.30;81.70;;;;;;5085589;28;20492;-72
2021/04/15 09:36:15;;;;;;;5.27;4.77;;;10.40;80.90;;;;;;5070036;28;20391;-72
2021/04/15 09:39:11;;;;;;;5.40;4.33;;;10.30;80.00;;;;;;5040417;28;20435;-72
2021/04/15 09:45:01;;;;;;;5.60;4.90;;;10.50;80.70;;;;;;5112236;27;20510;-72
2021/04/15 09:48:06;;;;;;;7.17;5.47;;;10.40;78.70;;;;;;5096720;28;20461;-72
2021/04/15 09:53:37;;;;;;;10.10;5.40;;;10.30;78.90;;;;;;5027017;27;20524;-72
2021/04/15 09:59:06;;;;;;;5.90;5.27;;;10.40;79.50;;;;;;5090915;28;20527;-72
2021/04/15 10:01:39;;;;;;;6.70;5.30;;;10.70;77.10;;;;;;5089750;28;20489;-72
2021/04/15 10:04:20;;;;;;;6.43;5.57;;;10.80;75.80;;;;;;5085378;28;20414;-72
2021/04/15 10:06:53;;;;;;;7.60;5.43;;;10.90;74.90;;;;;;5077284;28;20787;-72
2021/04/15 10:09:31;;;;;;;6.70;4.93;;;11.00;75.00;;;;;;5081412;28;20426;-72
2021/04/15 10:14:56;;;;;;;7.10;5.40;;;11.10;71.80;;;;;;5081760;27;20530;-73
2021/04/15 10:20:38;;;;;;;8.13;4.40;;;11.30;69.00;;;;;;5090617;27;20507;-72
2021/04/15 10:26:22;;;;;;;9.43;5.40;;;10.90;66.40;;;;;;5084445;27;20526;-71
2021/04/15 10:31:56;;;;;;;4.40;3.03;;;10.60;66.80;;;;;;5103314;27;20580;-72
2021/04/15 10:40:21;;;;;;;4.63;3.90;;;10.60;64.70;;;;;;5100488;27;20527;-72
2021/04/15 10:48:34;;;;;;;4.73;4.20;;;10.50;63.90;;;;;;5102058;27;20524;-72
2021/04/15 10:53:56;;;;;;;7.20;3.30;;;10.10;61.50;;;;;;5086742;28;20513;-71
2021/04/15 11:01:42;;;;;;;9.00;5.97;;;10.10;61.10;;;;;;5130537;27;20561;-71
2021/04/15 11:14:58;;;;;;;5.03;4.53;;;9.80;67.40;;;;;;5090564;28;20515;-72
2021/04/15 11:17:43;;;;;;;6.43;3.80;;;9.90;65.60;;;;;;5090555;28;20393;-72
2021/04/15 11:20:29;;;;;;;7.03;4.10;;;10.00;63.60;;;;;;5075933;28;20397;-72
2021/04/15 11:25:47;;;;;;;3.60;3.30;;;10.00;61.80;;;;;;5109386;27;20509;-74
2021/04/15 11:28:30;;;;;;;5.03;3.30;;;10.00;61.60;;;;;;5109278;28;20393;-72
2021/04/15 11:31:15;;;;;;;5.73;5.20;;;10.10;61.80;;;;;;5108933;28;20400;-72
2021/04/15 11:47:14;;;;;;;5.30;4.23;;;10.50;61.30;;;;;;5110931;27;20500;-72
2021/04/15 11:49:43;;;;;;;4.40;3.97;;;10.60;62.30;;;;;;5110929;28;20396;-72
2021/04/15 11:57:33;;;;;;;5.23;4.27;;;10.60;60.70;;;;;;5089700;28;20573;-75
2021/04/15 12:02:44;;;;;;;7.73;4.40;;;10.60;60.80;;;;;;5151958;27;20515;-72
2021/04/15 12:07:52;;;;;;;5.57;4.23;;;10.40;61.30;;;;;;5111161;27;20510;-72
2021/04/15 12:10:21;;;;;;;4.47;4.07;;;10.00;60.10;;;;;;5104426;28;20416;-72
2021/04/15 12:12:49;;;;;;;7.13;4.70;;;9.90;61.30;;;;;;5099061;28;20888;-72
2021/04/15 12:15:22;;;;;;;9.00;4.60;;;10.00;61.70;;;;;;5110743;28;20399;-72
2021/04/15 12:25:52;;;;;;;5.37;4.63;;;10.10;61.90;;;;;;5110645;27;20513;-74
2021/04/15 12:42:43;;;;;;;9.10;5.07;;;10.30;64.50;;;;;;5110873;27;20524;-71
2021/04/15 12:45:15;;;;;;;5.47;4.90;;;10.30;64.00;;;;;;5096453;28;20543;-71
2021/04/15 12:47:42;;;;;;;7.90;5.30;;;10.40;63.70;;;;;;5090559;28;20901;-71
2021/04/15 12:50:09;;;;;;;7.17;5.57;;;10.50;63.30;;;;;;5090788;28;20416;-71
2021/04/15 12:52:36;;;;;;;6.87;6.20;;;10.60;63.90;;;;;;5099177;28;20424;-71
2021/04/15 12:55:03;;;;;;;7.10;6.40;;;10.70;64.00;;;;;;5103449;28;20418;-71
2021/04/15 12:57:30;;;;;;;8.80;7.53;;;10.70;63.30;;;;;;5097249;28;20433;-71
2021/04/15 13:00:01;;;;;;;9.23;6.60;;;10.70;63.20;;;;;;5102072;28;20988;-71
2021/04/15 13:02:31;;;;;;;9.53;6.40;;;10.60;60.80;;;;;;5094491;28;20464;-71
2021/04/15 13:07:39;;;;;;;6.57;5.97;;;10.40;62.20;;;;;;5117874;27;20594;-72
2021/04/15 13:10:27;;;;;;;10.53;6.10;;;10.00;63.40;;;;;;5126842;28;20415;-72
2021/04/15 13:12:56;;;;;;;8.23;6.60;;;9.80;63.80;;;;;;5116770;28;20433;-72
2021/04/15 13:18:03;;;;;;;6.53;5.93;;;9.80;64.80;;;;;;5130389;27;20507;-72
2021/04/15 13:31:37;;;;;;;10.33;6.83;;;10.40;55.90;;;;;;5111310;27;20510;-74
2021/04/15 13:34:08;;;;;;;6.80;6.20;;;10.30;62.80;;;;;;5110896;28;20392;-74
2021/04/15 13:36:36;;;;;;;8.40;7.07;;;10.20;61.90;;;;;;5093059;28;20808;-76
2021/04/15 13:39:07;;;;;;;10.33;5.60;;;10.10;61.20;;;;;;5091038;28;20445;-74
2021/04/15 13:44:33;;;;;;;6.80;5.90;;;10.00;62.20;;;;;;5111033;27;20513;-72
2021/04/15 13:46:58;;;;;;;7.80;6.63;;;9.90;64.20;;;;;;5109820;28;20415;-72
2021/04/15 13:54:50;;;;;;;7.83;6.03;;;9.40;64.30;;;;;;5110964;27;20570;-72
2021/04/15 13:57:19;;;;;;;9.63;6.50;;;9.20;64.30;;;;;;5110966;28;20416;-72
2021/04/15 14:00:03;;;;;;;6.17;5.57;;;9.10;64.20;;;;;;5110647;28;20197;-72
2021/04/15 14:02:37;;;;;;;6.70;6.00;;;9.00;63.60;;;;;;5110810;28;20395;-72
2021/04/15 14:05:23;;;;;;;5.97;5.30;;;9.10;63.80;;;;;;5112077;28;20384;-72
2021/04/15 14:07:50;;;;;;;5.97;5.37;;;9.10;63.50;;;;;;5110815;28;20397;-72
2021/04/15 14:15:47;;;;;;;8.93;5.43;;;9.50;60.00;;;;;;5108899;27;20509;-71
2021/04/15 14:18:36;;;;;;;5.33;3.60;;;9.80;59.50;;;;;;5109116;28;20404;-71
2021/04/15 14:23:58;;;;;;;7.40;4.23;;;10.00;56.30;;;;;;5109332;27;20851;-72
2021/04/15 14:31:57;;;;;;;4.90;3.90;;;10.20;55.40;;;;;;5111047;27;20502;-71
2021/04/15 14:37:28;;;;;;;7.53;3.97;;;9.90;55.70;;;;;;5111051;27;20509;-72
2021/04/15 14:40:04;;;;;;;4.90;3.50;;;9.80;55.70;;;;;;5111080;28;20419;-72
2021/04/15 14:47:48;;;;;;;4.70;4.23;;;9.60;54.10;;;;;;5132058;27;21015;-71
2021/04/15 14:50:32;;;;;;;5.93;4.40;;;9.40;56.10;;;;;;5131944;28;20770;-71
2021/04/15 14:59:01;;;;;;;4.13;3.80;;;9.80;56.50;;;;;;5110965;27;20510;-72
2021/04/15 15:01:35;;;;;;;6.70;4.43;;;10.00;56.00;;;;;;5110200;28;20775;-72
2021/04/15 15:04:15;;;;;;;5.17;4.57;;;10.20;55.30;;;;;;5111769;28;20381;-72
2021/04/15 15:06:43;;;;;;;8.10;5.80;;;10.20;56.40;;;;;;5110862;28;20420;-72
2021/04/15 15:09:14;;;;;;;8.20;5.90;;;10.20;59.50;;;;;;5110766;28;20408;-72
2021/04/15 15:11:41;;;;;;;8.13;6.17;;;10.10;59.90;;;;;;5110955;28;20395;-72
2021/04/15 15:14:08;;;;;;;7.83;5.70;;;10.00;60.60;;;;;;5090786;28;20474;-72
2021/04/15 15:16:35;;;;;;;5.30;4.80;;;9.90;63.20;;;;;;5091380;28;20469;-72
2021/04/15 15:19:02;;;;;;;6.30;4.97;;;9.80;62.20;;;;;;5090937;28;20436;-72
2021/04/15 15:21:32;;;;;;;6.30;4.83;;;9.80;62.30;;;;;;5090224;28;20389;-72
2021/04/15 15:27:14;;;;;;;8.23;6.40;;;9.50;60.40;;;;;;5152289;27;20495;-72
2021/04/15 15:29:40;;;;;;;6.30;5.10;;;9.40;61.60;;;;;;5152134;27;20415;-72
2021/04/15 15:32:18;;;;;;;6.13;5.53;;;9.30;62.80;;;;;;5153324;27;20391;-72
2021/04/15 15:34:53;;;;;;;7.33;5.37;;;9.20;63.20;;;;;;5140566;27;20426;-72
2021/04/15 15:37:29;;;;;;;7.50;6.47;;;9.20;64.20;;;;;;5131434;27;20375;-72
2021/04/15 15:39:54;;;;;;;6.23;5.63;;;9.10;64.90;;;;;;5131287;27;20471;-72
2021/04/15 15:45:30;;;;;;;6.43;5.80;;;9.10;65.30;;;;;;5111561;27;20551;-71
2021/04/15 15:47:56;;;;;;;6.43;5.27;;;9.00;65.90;;;;;;5111484;28;20496;-71
2021/04/15 15:50:29;;;;;;;9.90;7.23;;;9.00;65.80;;;;;;5110771;28;20857;-71
2021/04/15 15:55:55;;;;;;;6.90;5.00;;;9.10;63.00;;;;;;5110983;27;20866;-71
2021/04/15 15:58:25;;;;;;;7.20;5.10;;;9.10;63.60;;;;;;5110783;28;20381;-71
2021/04/15 16:01:07;;;;;;;4.97;4.47;;;9.10;63.20;;;;;;5112046;28;20804;-71
2021/04/15 16:03:32;;;;;;;9.17;6.40;;;9.20;63.00;;;;;;5110874;28;20384;-71
2021/04/15 16:06:20;;;;;;;5.87;4.60;;;9.30;63.30;;;;;;5110781;28;20460;-71
2021/04/15 16:08:49;;;;;;;5.80;4.63;;;9.40;62.00;;;;;;5098355;28;20244;-71
2021/04/15 16:11:37;;;;;;;5.63;5.00;;;9.40;62.10;;;;;;5090166;28;20396;-71
2021/04/15 16:14:04;;;;;;;7.93;4.70;;;9.50;62.80;;;;;;5089373;28;20540;-71
2021/04/15 16:16:29;;;;;;;4.83;4.30;;;9.60;62.00;;;;;;5090888;28;20433;-71
2021/04/15 16:18:55;;;;;;;4.90;4.40;;;9.50;61.30;;;;;;5090221;28;20410;-71
2021/04/15 16:21:25;;;;;;;4.70;4.27;;;9.50;57.70;;;;;;5090001;28;20179;-71
2021/04/15 16:26:53;;;;;;;6.57;3.70;;;9.30;59.10;;;;;;5039067;27;20590;-72
2021/04/15 16:29:19;;;;;;;4.70;3.57;;;9.20;58.50;;;;;;5008101;28;20393;-72
2021/04/15 16:31:52;;;;;;;5.87;4.60;;;9.10;58.80;;;;;;5007607;28;20401;-72
2021/04/15 16:34:23;;;;;;;7.97;4.13;;;9.10;58.80;;;;;;5007265;28;20393;-72
2021/04/15 16:36:50;;;;;;;6.67;3.80;;;9.00;59.20;;;;;;5007360;28;20436;-72
2021/04/15 16:39:18;;;;;;;8.43;4.60;;;8.90;59.40;;;;;;5007208;28;20391;-72
2021/04/15 16:41:44;;;;;;;8.30;4.80;;;8.90;59.60;;;;;;5006380;28;20416;-72
2021/04/15 16:44:10;;;;;;;6.87;5.67;;;8.80;60.20;;;;;;5008339;28;20420;-72
2021/04/15 16:46:36;;;;;;;7.93;4.90;;;8.80;61.10;;;;;;5007388;28;20944;-72
2021/04/15 16:49:01;;;;;;;4.70;4.23;;;8.70;62.00;;;;;;5007044;28;20158;-72
2021/04/15 16:51:27;;;;;;;6.10;4.67;;;8.70;62.50;;;;;;5007011;28;20151;-72
2021/04/15 16:53:53;;;;;;;5.60;4.30;;;8.60;62.40;;;;;;5007034;28;20238;-72
2021/04/15 16:56:19;;;;;;;5.30;4.50;;;8.60;63.10;;;;;;5006892;28;20253;-72
2021/04/15 16:58:48;;;;;;;5.00;4.43;;;8.60;64.20;;;;;;5005620;28;20449;-72
2021/04/15 17:01:14;;;;;;;6.63;5.57;;;8.50;64.30;;;;;;4988511;28;20394;-72
2021/04/15 17:03:39;;;;;;;5.97;4.80;;;8.50;64.70;;;;;;4987205;28;20414;-72
2021/04/15 17:06:05;;;;;;;10.27;6.20;;;8.40;65.10;;;;;;4987172;28;20452;-72
2021/04/15 17:08:31;;;;;;;5.43;4.87;;;8.40;65.20;;;;;;4987722;28;20178;-72
2021/04/15 17:10:57;;;;;;;5.43;4.93;;;8.40;66.20;;;;;;4987412;28;20167;-72
2021/04/15 17:13:24;;;;;;;5.67;5.17;;;8.30;66.10;;;;;;4988694;28;20171;-72
2021/04/15 17:15:50;;;;;;;5.43;4.93;;;8.30;66.70;;;;;;4988584;28;20834;-72
2021/04/15 17:18:18;;;;;;;5.53;5.03;;;8.30;66.70;;;;;;4987008;28;20410;-72
2021/04/15 17:20:44;;;;;;;13.57;5.10;;;8.30;66.50;;;;;;4987025;28;20394;-72
2021/04/15 17:23:10;;;;;;;5.77;4.70;;;8.20;67.20;;;;;;4987046;28;20391;-72
2021/04/15 17:25:37;;;;;;;5.30;4.80;;;8.20;67.60;;;;;;4996931;28;20468;-72
2021/04/15 17:28:03;;;;;;;6.40;4.87;;;8.20;67.90;;;;;;5007764;28;20397;-72
2021/04/15 17:30:31;;;;;;;6.13;5.10;;;8.30;67.30;;;;;;5006591;28;20418;-72
2021/04/15 17:32:57;;;;;;;7.47;5.30;;;8.30;67.00;;;;;;5006898;28;20175;-72
2021/04/15 17:35:25;;;;;;;6.00;4.37;;;8.40;67.00;;;;;;5006473;28;20416;-72
2021/04/15 17:37:51;;;;;;;5.20;4.70;;;8.40;67.30;;;;;;4995388;28;20173;-72
2021/04/15 17:40:21;;;;;;;7.23;5.07;;;8.40;66.30;;;;;;4993707;28;20406;-72
2021/04/15 17:42:47;;;;;;;6.30;5.20;;;8.30;66.00;;;;;;4994657;28;20890;-72
2021/04/15 17:45:14;;;;;;;5.70;4.50;;;8.30;65.40;;;;;;4993075;28;20458;-72
2021/04/15 17:47:40;;;;;;;6.23;4.93;;;8.20;66.10;;;;;;4993038;28;20395;-72
2021/04/15 17:50:09;;;;;;;12.07;5.87;;;8.20;66.20;;;;;;4993635;28;20405;-72
2021/04/15 17:52:35;;;;;;;9.70;6.23;;;8.10;65.00;;;;;;4993051;28;20577;-72
2021/04/15 17:55:05;;;;;;;5.63;4.57;;;8.10;63.10;;;;;;4993204;28;20390;-72
2021/04/15 17:57:30;;;;;;;7.40;4.03;;;8.10;63.60;;;;;;4993809;28;20158;-72
2021/04/15 17:59:56;;;;;;;6.70;4.17;;;8.10;62.50;;;;;;4992782;28;20434;-72
2021/04/15 18:02:21;;;;;;;5.50;4.03;;;8.10;62.10;;;;;;4992879;28;20155;-72
2021/04/15 18:04:47;;;;;;;6.23;4.37;;;8.10;62.00;;;;;;4992738;28;20187;-72
2021/04/15 18:07:13;;;;;;;5.10;3.80;;;8.10;61.20;;;;;;4993601;28;20232;-72
2021/04/15 18:09:38;;;;;;;4.17;3.73;;;8.10;60.80;;;;;;4993383;28;20193;-72
2021/04/15 18:12:04;;;;;;;5.40;3.77;;;8.10;61.40;;;;;;4993509;28;20163;-72
2021/04/15 18:14:30;;;;;;;6.53;3.87;;;8.10;61.90;;;;;;4992479;28;20205;-72
2021/04/15 18:16:55;;;;;;;7.00;4.70;;;8.10;61.70;;;;;;4992659;28;20398;-72
2021/04/15 18:19:22;;;;;;;5.53;4.30;;;8.00;62.00;;;;;;4992696;28;20159;-72
2021/04/15 18:21:48;;;;;;;4.77;3.87;;;8.10;61.90;;;;;;4992918;28;20205;-72
2021/04/15 18:24:13;;;;;;;6.30;3.57;;;8.00;62.50;;;;;;4993841;28;20413;-72
2021/04/15 18:26:39;;;;;;;4.70;4.20;;;7.90;62.60;;;;;;4993402;28;20202;-72
2021/04/15 18:29:05;;;;;;;5.90;3.47;;;7.90;63.20;;;;;;4992354;28;20158;-72
2021/04/15 18:31:31;;;;;;;4.70;3.80;;;7.90;63.20;;;;;;4992623;28;20537;-72
2021/04/15 18:33:59;;;;;;;5.27;4.60;;;7.80;63.30;;;;;;4992376;28;20393;-72
2021/04/15 18:36:28;;;;;;;7.33;5.70;;;7.70;64.20;;;;;;4992556;28;20402;-72
2021/04/15 18:38:58;;;;;;;6.30;4.50;;;7.70;64.20;;;;;;4992742;28;20398;-72
2021/04/15 18:41:25;;;;;;;7.90;5.47;;;7.60;64.70;;;;;;4993560;28;20429;-72